createdAt,value
2018-11-03T00:01:02.265Z,11.70
2018-11-03T00:03:30.529Z,11.60
2018-11-03T00:05:58.764Z,11.50
2018-11-03T00:08:26.938Z,11.40
2018-11-03T00:10:55.141Z,11.50
2018-11-03T00:13:23.602Z,11.50
2018-11-03T00:15:51.771Z,11.30
2018-11-03T00:18:20.093Z,11.20
2018-11-03T00:20:48.285Z,11.00
2018-11-03T00:23:17.278Z,11.10
2018-11-03T00:25:45.557Z,11.10
2018-11-03T00:28:13.745Z,11.00
2018-11-03T00:30:41.986Z,10.90
2018-11-03T00:33:10.187Z,10.80
2018-11-03T00:35:38.490Z,10.70
2018-11-03T00:38:06.838Z,10.50
2018-11-03T00:40:35.224Z,10.40
2018-11-03T00:43:03.320Z,10.40
2018-11-03T00:45:31.586Z,10.30
2018-11-03T00:47:59.826Z,10.30
2018-11-03T00:50:28.099Z,10.20
2018-11-03T00:52:56.256Z,10.20
2018-11-03T00:55:24.566Z,10.20
2018-11-03T00:57:52.850Z,10.30
2018-11-03T01:00:21.069Z,10.20
2018-11-03T01:02:49.889Z,10.20
2018-11-03T01:05:18.064Z,10.10
2018-11-03T01:07:46.814Z,10.20
2018-11-03T01:10:15.561Z,10.20
2018-11-03T01:12:43.729Z,10.20
2018-11-03T01:15:13.341Z,10.20
2018-11-03T01:17:42.506Z,10.10
2018-11-03T01:20:12.693Z,10.00
2018-11-03T01:22:40.884Z,10.00
2018-11-03T01:25:09.434Z,10.00
2018-11-03T01:27:37.669Z,10.10
2018-11-03T01:30:09.588Z,10.10
2018-11-03T01:32:37.914Z,10.00
2018-11-03T01:35:06.645Z,10.00
2018-11-03T01:37:34.911Z,10.00
2018-11-03T01:40:03.085Z,10.00
2018-11-03T01:42:31.242Z,10.00
2018-11-03T01:45:00.112Z,9.90
2018-11-03T01:47:28.241Z,9.90
2018-11-03T01:49:56.344Z,9.90
2018-11-03T01:52:24.496Z,9.90
2018-11-03T01:54:53.688Z,9.80
2018-11-03T01:57:22.094Z,9.80
2018-11-03T01:59:51.178Z,9.70
2018-11-03T02:02:19.364Z,9.70
2018-11-03T02:04:47.758Z,9.60
2018-11-03T02:07:15.882Z,9.50
2018-11-03T02:09:44.009Z,9.40
2018-11-03T02:12:22.894Z,9.50
2018-11-03T02:14:51.914Z,9.60
2018-11-03T02:17:20.049Z,9.50
2018-11-03T02:19:48.244Z,9.50
2018-11-03T02:22:16.493Z,9.60
2018-11-03T02:24:44.706Z,9.60
2018-11-03T02:27:13.358Z,9.70
2018-11-03T02:29:45.624Z,9.70
2018-11-03T02:32:17.185Z,9.60
2018-11-03T02:34:45.373Z,9.70
2018-11-03T02:37:15.243Z,9.60
2018-11-03T02:39:43.437Z,9.60
2018-11-03T02:42:11.973Z,9.60
2018-11-03T02:44:40.499Z,9.50
2018-11-03T02:47:08.727Z,9.50
2018-11-03T02:49:36.851Z,9.40
2018-11-03T02:52:05.757Z,9.40
2018-11-03T02:54:33.963Z,9.30
2018-11-03T02:57:02.187Z,9.40
2018-11-03T02:59:30.277Z,9.30
2018-11-03T03:01:58.397Z,9.30
2018-11-03T03:04:26.590Z,9.30
2018-11-03T03:06:54.713Z,9.30
2018-11-03T03:09:22.899Z,9.30
2018-11-03T03:11:51.025Z,9.30
2018-11-03T03:14:19.172Z,9.30
2018-11-03T03:16:47.328Z,9.30
2018-11-03T03:19:15.501Z,9.40
2018-11-03T03:21:43.627Z,9.30
2018-11-03T03:24:11.743Z,9.20
2018-11-03T03:26:39.900Z,9.20
2018-11-03T03:29:08.143Z,9.20
2018-11-03T03:31:36.192Z,9.20
2018-11-03T03:34:04.304Z,9.20
2018-11-03T03:36:32.453Z,9.30
2018-11-03T03:39:00.580Z,9.30
2018-11-03T03:41:28.725Z,9.30
2018-11-03T03:43:56.860Z,9.30
2018-11-03T03:46:24.984Z,9.30
2018-11-03T03:48:53.076Z,9.30
2018-11-03T03:51:21.595Z,9.20
2018-11-03T03:53:49.702Z,9.20
2018-11-03T03:56:17.904Z,9.20
2018-11-03T03:58:46.113Z,9.20
2018-11-03T04:01:14.458Z,9.20
2018-11-03T04:03:42.870Z,9.10
2018-11-03T04:06:11.028Z,9.10
2018-11-03T04:08:39.163Z,9.00
2018-11-03T04:11:07.345Z,9.00
2018-11-03T04:13:35.553Z,9.00
2018-11-03T04:16:03.678Z,8.90
2018-11-03T04:18:31.909Z,8.90
2018-11-03T04:21:00.110Z,9.00
2018-11-03T04:23:28.286Z,9.00
2018-11-03T04:25:56.551Z,9.10
2018-11-03T04:28:24.704Z,9.10
2018-11-03T04:30:52.823Z,9.10
2018-11-03T04:33:21.175Z,9.10
2018-11-03T04:35:49.296Z,9.10
2018-11-03T04:38:17.486Z,9.00
2018-11-03T04:40:45.628Z,9.00
2018-11-03T04:43:13.805Z,8.90
2018-11-03T04:45:42.764Z,8.90
2018-11-03T04:48:10.960Z,8.90
2018-11-03T04:50:39.066Z,8.90
2018-11-03T04:53:07.700Z,8.90
2018-11-03T04:55:36.082Z,8.90
2018-11-03T04:58:04.557Z,8.90
2018-11-03T05:00:33.516Z,8.90
2018-11-03T05:03:01.716Z,8.90
2018-11-03T05:05:30.240Z,9.00
2018-11-03T05:07:58.840Z,8.80
2018-11-03T05:10:27.998Z,8.80
2018-11-03T05:12:56.091Z,8.70
2018-11-03T05:15:24.238Z,8.70
2018-11-03T05:17:52.733Z,8.70
2018-11-03T05:20:20.994Z,8.60
2018-11-03T05:22:49.230Z,8.60
2018-11-03T05:25:17.457Z,8.60
2018-11-03T05:27:46.245Z,8.60
2018-11-03T05:30:14.523Z,8.60
2018-11-03T05:32:43.705Z,8.60
2018-11-03T05:35:12.729Z,8.60
2018-11-03T05:37:40.881Z,8.70
2018-11-03T05:40:09.265Z,8.60
2018-11-03T05:42:38.269Z,8.60
2018-11-03T05:45:07.686Z,8.60
2018-11-03T05:47:36.657Z,8.60
2018-11-03T05:50:06.444Z,8.60
2018-11-03T05:52:34.721Z,8.60
2018-11-03T05:55:03.019Z,8.60
2018-11-03T05:57:31.206Z,8.60
2018-11-03T05:59:59.786Z,8.60
2018-11-03T06:02:28.057Z,8.50
2018-11-03T06:04:56.333Z,8.40
2018-11-03T06:07:24.825Z,8.50
2018-11-03T06:09:53.093Z,8.50
2018-11-03T06:12:21.270Z,8.50
2018-11-03T06:14:49.544Z,8.60
2018-11-03T06:17:17.770Z,8.60
2018-11-03T06:19:46.564Z,8.40
2018-11-03T06:22:14.948Z,8.50
2018-11-03T06:24:43.892Z,8.40
2018-11-03T06:27:12.728Z,8.40
2018-11-03T06:29:41.046Z,8.40
2018-11-03T06:32:10.824Z,8.10
2018-11-03T06:34:40.741Z,8.00
2018-11-03T06:37:09.565Z,8.00
2018-11-03T06:39:37.725Z,8.10
2018-11-03T06:42:06.288Z,8.10
2018-11-03T06:44:34.561Z,8.10
2018-11-03T06:47:02.831Z,8.30
2018-11-03T06:49:30.952Z,8.20
2018-11-03T06:51:59.227Z,8.20
2018-11-03T06:54:27.524Z,8.10
2018-11-03T06:56:55.755Z,8.10
2018-11-03T06:59:24.131Z,8.00
2018-11-03T07:01:52.413Z,8.10
2018-11-03T07:04:21.221Z,8.20
2018-11-03T07:06:49.652Z,8.10
2018-11-03T07:09:18.052Z,8.10
2018-11-03T07:11:46.279Z,8.10
2018-11-03T07:14:14.679Z,8.20
2018-11-03T07:16:42.797Z,8.20
2018-11-03T07:19:11.077Z,8.20
2018-11-03T07:21:40.145Z,8.10
2018-11-03T07:24:08.315Z,8.00
2018-11-03T07:26:36.588Z,8.00
2018-11-03T07:29:04.889Z,8.10
2018-11-03T07:31:33.201Z,8.20
2018-11-03T07:34:01.375Z,8.20
2018-11-03T07:36:30.288Z,8.20
2018-11-03T07:38:58.511Z,8.30
2018-11-03T07:41:26.811Z,8.30
2018-11-03T07:43:54.906Z,8.30
2018-11-03T07:46:23.662Z,8.30
2018-11-03T07:48:53.140Z,8.30
2018-11-03T07:51:21.197Z,8.40
2018-11-03T07:53:49.433Z,8.50
2018-11-03T07:56:17.590Z,8.60
2018-11-03T07:58:45.779Z,8.70
2018-11-03T08:01:16.118Z,8.70
2018-11-03T08:03:44.313Z,8.70
2018-11-03T08:06:17.008Z,8.80
2018-11-03T08:08:45.178Z,8.90
2018-11-03T08:11:13.378Z,8.90
2018-11-03T08:13:41.561Z,8.80
2018-11-03T08:16:09.882Z,8.90
2018-11-03T08:18:38.083Z,8.80
2018-11-03T08:21:12.186Z,9.10
2018-11-03T08:23:43.661Z,9.10
2018-11-03T08:26:12.477Z,9.10
2018-11-03T08:28:40.840Z,9.20
2018-11-03T08:31:09.771Z,9.20
2018-11-03T08:33:38.825Z,9.30
2018-11-03T08:36:08.242Z,9.30
2018-11-03T08:38:36.602Z,9.40
2018-11-03T08:41:05.684Z,9.50
2018-11-03T08:43:33.854Z,9.40
2018-11-03T08:46:02.271Z,9.40
2018-11-03T08:48:31.238Z,9.40
2018-11-03T08:50:59.493Z,9.50
2018-11-03T08:53:27.650Z,9.60
2018-11-03T08:55:55.804Z,9.60
2018-11-03T08:58:24.041Z,9.70
2018-11-03T09:00:52.206Z,9.80
2018-11-03T09:03:20.674Z,9.80
2018-11-03T09:05:48.855Z,9.80
2018-11-03T09:08:17.094Z,9.80
2018-11-03T09:10:45.242Z,10.00
2018-11-03T09:13:13.983Z,10.00
2018-11-03T09:15:42.364Z,9.90
2018-11-03T09:18:10.931Z,10.00
2018-11-03T09:20:40.040Z,9.90
2018-11-03T09:23:09.842Z,9.90
2018-11-03T09:25:38.416Z,10.00
2018-11-03T09:28:07.186Z,9.90
2018-11-03T09:30:35.424Z,9.90
2018-11-03T09:33:03.762Z,10.00
2018-11-03T09:35:32.202Z,10.00
2018-11-03T09:38:02.016Z,9.80
2018-11-03T09:40:31.038Z,9.90
2018-11-03T09:42:59.487Z,10.30
2018-11-03T09:45:33.674Z,10.50
2018-11-03T09:48:03.053Z,10.50
2018-11-03T09:50:31.790Z,10.40
2018-11-03T09:53:00.493Z,10.30
2018-11-03T09:55:28.759Z,10.40
2018-11-03T09:57:57.847Z,10.40
2018-11-03T10:00:26.143Z,10.50
2018-11-03T10:02:54.844Z,10.70
2018-11-03T10:05:23.830Z,10.70
2018-11-03T10:07:53.510Z,10.80
2018-11-03T10:10:21.790Z,10.90
2018-11-03T10:12:50.100Z,10.90
2018-11-03T10:15:19.001Z,10.90
2018-11-03T10:17:47.293Z,10.90
2018-11-03T10:20:16.505Z,10.90
2018-11-03T10:22:44.737Z,10.90
2018-11-03T10:25:17.203Z,10.80
2018-11-03T10:27:45.741Z,10.70
2018-11-03T10:30:15.812Z,10.60
2018-11-03T10:32:44.258Z,10.70
2018-11-03T10:35:13.815Z,10.70
2018-11-03T10:37:42.422Z,10.60
2018-11-03T10:40:12.903Z,10.50
2018-11-03T10:42:41.478Z,10.60
2018-11-03T10:45:10.917Z,10.80
2018-11-03T10:47:39.506Z,10.90
2018-11-03T10:50:09.676Z,11.10
2018-11-03T10:52:38.562Z,11.30
2018-11-03T10:55:07.480Z,11.30
2018-11-03T10:57:35.645Z,11.20
2018-11-03T11:00:04.251Z,11.10
2018-11-03T11:02:37.861Z,11.30
2018-11-03T11:05:11.788Z,11.50
2018-11-03T11:07:45.732Z,11.50
2018-11-03T11:10:25.086Z,11.60
2018-11-03T11:12:54.555Z,11.80
2018-11-03T11:15:22.812Z,11.90
2018-11-03T11:17:50.993Z,12.40
2018-11-03T11:20:19.325Z,12.20
2018-11-03T11:22:48.385Z,12.50
2018-11-03T11:25:16.610Z,12.60
2018-11-03T11:27:45.177Z,13.00
2018-11-03T11:30:13.481Z,13.00
2018-11-03T11:32:41.810Z,13.00
2018-11-03T11:35:10.191Z,12.90
2018-11-03T11:37:38.568Z,13.10
2018-11-03T11:40:07.200Z,13.20
2018-11-03T11:42:35.455Z,13.30
2018-11-03T11:45:03.805Z,13.50
2018-11-03T11:47:32.202Z,13.50
2018-11-03T11:50:00.509Z,13.90
2018-11-03T11:52:28.740Z,14.00
2018-11-03T11:54:56.978Z,14.00
2018-11-03T11:57:25.101Z,14.00
2018-11-03T11:59:53.458Z,14.30
2018-11-03T12:02:21.854Z,14.60
2018-11-03T12:04:50.131Z,14.60
2018-11-03T12:07:18.550Z,14.90
2018-11-03T12:09:46.894Z,15.00
2018-11-03T12:12:15.425Z,14.80
2018-11-03T12:14:43.602Z,14.50
2018-11-03T12:17:11.832Z,14.60
2018-11-03T12:19:40.089Z,14.80
2018-11-03T12:22:08.546Z,14.70
2018-11-03T12:24:37.150Z,14.70
2018-11-03T12:27:05.461Z,14.70
2018-11-03T12:29:33.633Z,14.90
2018-11-03T12:32:02.034Z,14.90
2018-11-03T12:34:30.261Z,15.00
2018-11-03T12:36:58.917Z,15.30
2018-11-03T12:39:27.125Z,15.20
2018-11-03T12:41:55.289Z,15.30
2018-11-03T12:44:23.477Z,15.60
2018-11-03T12:46:51.701Z,15.50
2018-11-03T12:49:20.046Z,15.40
2018-11-03T12:51:48.884Z,15.10
2018-11-03T12:54:17.073Z,15.30
2018-11-03T12:56:45.488Z,15.30
2018-11-03T12:59:13.617Z,15.30
2018-11-03T13:01:41.817Z,15.40
2018-11-03T13:04:10.048Z,15.70
2018-11-03T13:06:38.155Z,15.80
2018-11-03T13:09:08.158Z,15.60
2018-11-03T13:11:36.949Z,15.50
2018-11-03T13:14:07.694Z,15.60
2018-11-03T13:16:36.702Z,15.90
2018-11-03T13:19:06.024Z,15.60
2018-11-03T13:21:34.401Z,15.40
2018-11-03T13:24:02.601Z,15.40
2018-11-03T13:26:31.282Z,15.20
2018-11-03T13:28:59.456Z,15.40
2018-11-03T13:31:27.730Z,15.90
2018-11-03T13:33:55.927Z,15.90
2018-11-03T13:36:24.141Z,15.60
2018-11-03T13:38:52.333Z,15.30
2018-11-03T13:41:20.707Z,15.20
2018-11-03T13:43:49.025Z,15.10
2018-11-03T13:46:17.215Z,15.00
2018-11-03T13:48:46.499Z,15.20
2018-11-03T13:51:14.610Z,15.10
2018-11-03T13:53:43.071Z,15.00
2018-11-03T13:56:11.573Z,14.90
2018-11-03T13:58:39.771Z,14.90
2018-11-03T14:01:08.022Z,14.60
2018-11-03T14:03:36.425Z,14.70
2018-11-03T14:06:05.173Z,14.50
2018-11-03T14:08:33.728Z,14.30
2018-11-03T14:11:02.084Z,14.20
2018-11-03T14:13:30.354Z,14.20
2018-11-03T14:15:58.794Z,14.20
2018-11-03T14:18:27.001Z,14.20
2018-11-03T14:20:55.528Z,14.20
2018-11-03T14:23:25.588Z,14.00
2018-11-03T14:25:55.810Z,14.00
2018-11-03T14:28:24.526Z,14.10
2018-11-03T14:30:53.034Z,14.10
2018-11-03T14:33:21.276Z,14.10
2018-11-03T14:35:49.435Z,14.10
2018-11-03T14:38:17.788Z,14.00
2018-11-03T14:40:46.058Z,14.10
2018-11-03T14:43:14.389Z,14.00
2018-11-03T14:45:43.305Z,14.00
2018-11-03T14:48:11.653Z,13.90
2018-11-03T14:50:39.916Z,13.90
2018-11-03T14:53:08.451Z,14.00
2018-11-03T14:55:36.830Z,13.90
2018-11-03T14:58:05.410Z,13.90
2018-11-03T15:00:35.142Z,13.80
2018-11-03T15:03:03.917Z,13.70
2018-11-03T15:05:32.747Z,13.80
2018-11-03T15:08:01.507Z,13.70
2018-11-03T15:10:30.193Z,13.70
2018-11-03T15:12:59.882Z,13.70
2018-11-03T15:15:28.475Z,13.60
2018-11-03T15:17:56.933Z,13.50
2018-11-03T15:20:26.965Z,13.60
2018-11-03T15:22:55.546Z,13.50
2018-11-03T15:25:24.129Z,13.50
2018-11-03T15:27:53.159Z,13.50
2018-11-03T15:30:21.905Z,13.50
2018-11-03T15:32:50.400Z,13.50
2018-11-03T15:35:25.547Z,13.40
2018-11-03T15:37:53.970Z,13.40
2018-11-03T15:40:22.491Z,13.40
2018-11-03T15:42:50.803Z,13.40
2018-11-03T15:45:20.817Z,13.40
2018-11-03T15:47:49.857Z,13.40
2018-11-03T15:50:18.427Z,13.40
2018-11-03T15:52:47.414Z,13.30
2018-11-03T15:55:17.322Z,13.30
2018-11-03T15:57:46.837Z,13.20
2018-11-03T16:00:19.811Z,13.20
2018-11-03T16:02:48.650Z,13.20
2018-11-03T16:05:19.123Z,13.10
2018-11-03T16:07:47.970Z,13.00
2018-11-03T16:10:17.440Z,13.00
2018-11-03T16:12:46.141Z,13.00
2018-11-03T16:15:14.287Z,13.00
2018-11-03T16:17:42.921Z,13.00
2018-11-03T16:20:12.521Z,12.90
2018-11-03T16:22:41.358Z,12.90
2018-11-03T16:25:10.362Z,12.90
2018-11-03T16:27:39.455Z,12.90
2018-11-03T16:30:09.840Z,12.80
2018-11-03T16:32:38.790Z,12.90
2018-11-03T16:35:07.318Z,12.80
2018-11-03T16:37:36.042Z,12.80
2018-11-03T16:40:05.123Z,12.70
2018-11-03T16:42:33.572Z,12.70
2018-11-03T16:45:05.427Z,12.70
2018-11-03T16:47:33.851Z,12.60
2018-11-03T16:50:02.079Z,12.60
2018-11-03T16:52:30.415Z,12.60
2018-11-03T16:54:58.899Z,12.60
2018-11-03T16:57:27.385Z,12.60
2018-11-03T16:59:55.714Z,12.50
2018-11-03T17:02:26.936Z,12.50
2018-11-03T17:04:55.246Z,12.50
2018-11-03T17:07:23.479Z,12.50
2018-11-03T17:09:51.799Z,12.40
2018-11-03T17:12:21.202Z,12.40
2018-11-03T17:14:49.604Z,12.20
2018-11-03T17:17:18.637Z,12.20
2018-11-03T17:19:46.977Z,12.10
2018-11-03T17:22:15.416Z,12.10
2018-11-03T17:24:44.021Z,12.10
2018-11-03T17:27:12.402Z,12.10
2018-11-03T17:29:40.671Z,12.00
2018-11-03T17:32:08.940Z,12.10
2018-11-03T17:34:37.063Z,12.10
2018-11-03T17:37:05.581Z,12.10
2018-11-03T17:39:34.336Z,12.20
2018-11-03T17:42:02.550Z,12.10
2018-11-03T17:44:30.840Z,12.10
2018-11-03T17:46:58.982Z,12.00
2018-11-03T17:49:28.299Z,12.00
2018-11-03T17:51:56.621Z,12.00
2018-11-03T17:54:24.748Z,12.00
2018-11-03T17:56:52.958Z,12.00
2018-11-03T17:59:21.933Z,11.90
2018-11-03T18:01:50.262Z,11.90
2018-11-03T18:04:18.439Z,11.90
2018-11-03T18:06:47.191Z,11.90
2018-11-03T18:09:16.363Z,11.90
2018-11-03T18:11:45.830Z,11.80
2018-11-03T18:14:14.033Z,11.80
2018-11-03T18:16:42.223Z,11.80
2018-11-03T18:19:10.390Z,11.70
2018-11-03T18:21:38.784Z,11.70
2018-11-03T18:24:07.026Z,11.70
2018-11-03T18:26:35.279Z,11.70
2018-11-03T18:29:03.870Z,11.70
2018-11-03T18:31:32.068Z,11.60
2018-11-03T18:34:00.503Z,11.60
2018-11-03T18:36:29.194Z,11.60
2018-11-03T18:38:57.421Z,11.60
2018-11-03T18:41:25.834Z,11.50
2018-11-03T18:43:54.741Z,11.40
2018-11-03T18:46:23.090Z,11.50
2018-11-03T18:48:51.194Z,11.50
2018-11-03T18:51:19.384Z,11.50
2018-11-03T18:53:47.537Z,11.40
2018-11-03T18:56:15.689Z,11.40
2018-11-03T18:58:43.945Z,11.40
2018-11-03T19:01:12.230Z,11.40
2018-11-03T19:03:41.205Z,11.40
2018-11-03T19:06:09.427Z,11.30
2018-11-03T19:08:38.242Z,11.30
2018-11-03T19:11:06.697Z,11.10
2018-11-03T19:13:34.875Z,11.20
2018-11-03T19:16:03.014Z,11.10
2018-11-03T19:18:31.756Z,11.10
2018-11-03T19:21:00.010Z,11.20
2018-11-03T19:23:28.282Z,11.30
2018-11-03T19:25:56.455Z,11.20
2018-11-03T19:28:24.956Z,11.20
2018-11-03T19:30:53.390Z,11.20
2018-11-03T19:33:22.062Z,11.20
2018-11-03T19:35:50.299Z,11.20
2018-11-03T19:38:18.793Z,11.20
2018-11-03T19:40:47.092Z,11.10
2018-11-03T19:43:15.234Z,11.10
2018-11-03T19:45:43.417Z,11.10
2018-11-03T19:48:11.786Z,11.10
2018-11-03T19:50:39.909Z,11.10
2018-11-03T19:53:08.142Z,11.10
2018-11-03T19:55:36.870Z,11.10
2018-11-03T19:58:06.421Z,11.10
2018-11-03T20:00:35.497Z,11.00
2018-11-03T20:03:03.750Z,10.90
2018-11-03T20:05:32.741Z,10.90
2018-11-03T20:08:00.901Z,10.90
2018-11-03T20:10:29.312Z,10.80
2018-11-03T20:12:57.446Z,10.90
2018-11-03T20:15:25.746Z,10.90
2018-11-03T20:17:53.934Z,10.90
2018-11-03T20:20:22.280Z,10.90
2018-11-03T20:22:50.420Z,10.90
2018-11-03T20:25:18.669Z,10.80
2018-11-03T20:27:46.940Z,10.70
2018-11-03T20:30:16.375Z,10.60
2018-11-03T20:32:45.262Z,10.60
2018-11-03T20:35:13.493Z,10.60
2018-11-03T20:37:41.720Z,10.60
2018-11-03T20:40:11.350Z,10.60
2018-11-03T20:42:39.574Z,10.60
2018-11-03T20:45:08.226Z,10.50
2018-11-03T20:47:36.818Z,10.50
2018-11-03T20:50:06.548Z,10.50
2018-11-03T20:52:38.140Z,10.50
2018-11-03T20:55:06.913Z,10.40
2018-11-03T20:57:35.127Z,10.40
2018-11-03T21:00:03.878Z,10.40
2018-11-03T21:02:32.159Z,10.40
2018-11-03T21:05:00.378Z,10.50
2018-11-03T21:07:28.494Z,10.40
2018-11-03T21:09:56.990Z,10.30
2018-11-03T21:12:25.174Z,10.30
2018-11-03T21:14:53.326Z,10.30
2018-11-03T21:17:21.597Z,10.20
2018-11-03T21:19:49.862Z,10.10
2018-11-03T21:22:18.149Z,10.20
2018-11-03T21:24:46.314Z,10.10
2018-11-03T21:27:15.660Z,10.10
2018-11-03T21:29:43.994Z,10.10
2018-11-03T21:32:12.313Z,10.00
2018-11-03T21:34:40.331Z,10.10
2018-11-03T21:37:08.668Z,10.10
2018-11-03T21:39:37.008Z,10.00
2018-11-03T21:42:05.433Z,10.10
2018-11-03T21:44:33.696Z,10.00
2018-11-03T21:47:02.551Z,10.00
2018-11-03T21:49:30.729Z,9.90
2018-11-03T21:51:59.689Z,10.00
2018-11-03T21:54:28.938Z,10.00
2018-11-03T21:56:57.246Z,9.90
2018-11-03T21:59:25.783Z,9.90
2018-11-03T22:01:53.990Z,10.00
2018-11-03T22:04:22.177Z,9.90
2018-11-03T22:06:51.418Z,9.90
2018-11-03T22:09:19.721Z,9.90
2018-11-03T22:11:47.947Z,9.90
2018-11-03T22:14:16.157Z,9.90
2018-11-03T22:16:44.419Z,9.90
2018-11-03T22:19:12.677Z,9.80
2018-11-03T22:21:41.009Z,9.80
2018-11-03T22:24:09.637Z,9.80
2018-11-03T22:26:39.300Z,9.60
2018-11-03T22:29:08.364Z,9.70
2018-11-03T22:31:36.638Z,9.70
2018-11-03T22:34:05.813Z,9.70
2018-11-03T22:36:33.973Z,9.70
2018-11-03T22:39:03.229Z,9.70
2018-11-03T22:41:31.481Z,9.70
2018-11-03T22:43:59.721Z,9.70
2018-11-03T22:46:27.875Z,9.70
2018-11-03T22:48:56.034Z,9.70
2018-11-03T22:51:24.239Z,9.60
2018-11-03T22:53:52.345Z,9.60
2018-11-03T22:56:21.653Z,9.60
2018-11-03T22:58:49.938Z,9.60
2018-11-03T23:01:18.091Z,9.50
2018-11-03T23:03:46.355Z,9.60
2018-11-03T23:06:14.503Z,9.50
2018-11-03T23:08:42.661Z,9.50
2018-11-03T23:11:10.826Z,9.40
2018-11-03T23:13:38.996Z,9.40
2018-11-03T23:16:07.501Z,9.40
2018-11-03T23:18:36.577Z,9.30
2018-11-03T23:21:04.821Z,9.20
2018-11-03T23:23:32.927Z,9.10
2018-11-03T23:26:01.469Z,9.10
2018-11-03T23:28:29.889Z,9.10
2018-11-03T23:30:58.778Z,9.10
2018-11-03T23:33:27.228Z,9.10
2018-11-03T23:35:55.434Z,9.10
2018-11-03T23:38:24.014Z,9.10
2018-11-03T23:40:52.303Z,9.10
2018-11-03T23:43:20.944Z,9.10
2018-11-03T23:45:49.101Z,9.20
2018-11-03T23:48:17.221Z,9.20
2018-11-03T23:50:45.385Z,9.20
2018-11-03T23:53:13.610Z,9.10
2018-11-03T23:55:41.663Z,9.10
2018-11-03T23:58:09.813Z,9.00
